Talcottville, Connecticut
Current Conditions -  °F | °C
As of 5:53 AM on Saturday 20 Dec 2014 (Local Time) from KHFD Reporting Station
Overcast Overcast  
Wind Chill: 19°   Ceiling: 3400
Heat Index: 27°   Visibility: 10mi
Dew Point: 18°   Wind: 8mph
Humidity: 69%   Direction: 340°NNW
Pressure: 30.26"   Gusts: NA
Location:  41.837°N, 72.4608°W
Report Text: KHFD 201053Z AUTO 34007KT 10SM OVC034 M03/M08 A3026 RMK AO2 SLP246 T10281078
Loading
Personal Weather Stations






























Interactive Weather Map New forecast layout! Learn more

10-Day Weather Forecast

Advertisements
Track Severe Weather on mobile